createdAt,value
2018-11-07T00:00:49.853Z,2.10
2018-11-07T00:03:18.316Z,2.03
2018-11-07T00:05:46.505Z,2.30
2018-11-07T00:08:16.940Z,1.90
2018-11-07T00:10:45.103Z,2.23
2018-11-07T00:13:13.318Z,1.97
2018-11-07T00:15:41.506Z,2.00
2018-11-07T00:18:09.742Z,1.90
2018-11-07T00:20:37.938Z,1.80
2018-11-07T00:23:06.258Z,1.80
2018-11-07T00:25:34.454Z,1.80
2018-11-07T00:28:02.653Z,1.90
2018-11-07T00:30:30.850Z,1.23
2018-11-07T00:32:59.050Z,1.73
2018-11-07T00:35:27.233Z,1.30
2018-11-07T00:37:55.422Z,1.40
2018-11-07T00:40:23.621Z,2.20
2018-11-07T00:42:51.845Z,1.67
2018-11-07T00:45:20.028Z,2.17
2018-11-07T00:47:48.205Z,1.90
2018-11-07T00:50:17.740Z,2.13
2018-11-07T00:52:46.220Z,1.90
2018-11-07T00:55:15.101Z,2.30
2018-11-07T00:57:43.497Z,2.80
2018-11-07T01:00:14.814Z,1.93
2018-11-07T01:02:43.082Z,1.93
2018-11-07T01:05:12.612Z,2.07
2018-11-07T01:07:41.326Z,2.00
2018-11-07T01:10:10.075Z,1.70
2018-11-07T01:12:38.578Z,1.97
2018-11-07T01:15:07.526Z,2.10
2018-11-07T01:17:35.723Z,2.10
2018-11-07T01:20:04.485Z,1.60
2018-11-07T01:22:32.682Z,1.70
2018-11-07T01:25:00.901Z,1.80
2018-11-07T01:27:29.217Z,1.70
2018-11-07T01:29:57.565Z,1.73
2018-11-07T01:32:25.772Z,1.70
2018-11-07T01:34:53.946Z,2.00
2018-11-07T01:37:22.145Z,1.80
2018-11-07T01:39:50.331Z,1.53
2018-11-07T01:42:18.519Z,1.43
2018-11-07T01:44:46.693Z,2.00
2018-11-07T01:47:14.893Z,1.83
2018-11-07T01:49:43.075Z,1.73
2018-11-07T01:52:11.249Z,1.83
2018-11-07T01:54:39.440Z,1.77
2018-11-07T01:57:07.637Z,1.50
2018-11-07T01:59:35.853Z,1.93
2018-11-07T02:02:04.041Z,1.23
2018-11-07T02:04:32.224Z,1.20
2018-11-07T02:09:35.165Z,1.13
2018-11-07T02:12:03.378Z,1.20
2018-11-07T02:14:31.562Z,1.20
2018-11-07T02:16:59.755Z,1.30
2018-11-07T02:19:27.940Z,1.47
2018-11-07T02:21:56.121Z,1.10
2018-11-07T02:24:24.305Z,1.43
2018-11-07T02:26:52.494Z,1.40
2018-11-07T02:29:20.671Z,1.43
2018-11-07T02:31:48.873Z,1.10
2018-11-07T02:34:17.099Z,1.20
2018-11-07T02:36:45.350Z,1.80
2018-11-07T02:39:14.615Z,1.50
2018-11-07T02:41:42.869Z,1.50
2018-11-07T02:44:12.210Z,1.37
2018-11-07T02:46:40.862Z,1.30
2018-11-07T02:49:09.054Z,1.40
2018-11-07T02:51:37.258Z,1.40
2018-11-07T02:54:05.436Z,1.20
2018-11-07T02:56:33.797Z,1.40
2018-11-07T02:59:01.982Z,2.30
2018-11-07T03:01:30.232Z,1.30
2018-11-07T03:03:58.418Z,1.40
2018-11-07T03:06:26.601Z,1.83
2018-11-07T03:08:54.799Z,1.63
2018-11-07T03:11:22.978Z,1.27
2018-11-07T03:13:51.174Z,1.77
2018-11-07T03:16:19.349Z,2.13
2018-11-07T03:18:47.547Z,1.93
2018-11-07T03:21:15.734Z,2.07
2018-11-07T03:23:43.920Z,1.80
2018-11-07T03:26:12.102Z,1.90
2018-11-07T03:28:40.283Z,1.77
2018-11-07T03:31:08.456Z,2.07
2018-11-07T03:33:36.668Z,1.93
2018-11-07T03:36:05.137Z,1.80
2018-11-07T03:38:33.330Z,2.00
2018-11-07T03:41:01.520Z,1.73
2018-11-07T03:43:29.710Z,1.80
2018-11-07T03:45:58.514Z,1.90
2018-11-07T03:48:27.691Z,1.63
2018-11-07T03:50:55.861Z,1.73
2018-11-07T03:53:24.161Z,1.40
2018-11-07T03:55:52.333Z,1.57
2018-11-07T03:58:20.520Z,1.60
2018-11-07T04:00:48.702Z,1.70
2018-11-07T04:03:16.917Z,1.63
2018-11-07T04:05:45.102Z,1.70
2018-11-07T04:08:13.285Z,1.53
2018-11-07T04:10:41.474Z,2.00
2018-11-07T04:13:09.762Z,1.40
2018-11-07T04:15:37.973Z,1.43
2018-11-07T04:18:06.194Z,1.40
2018-11-07T04:20:34.374Z,1.20
2018-11-07T04:23:02.614Z,1.30
2018-11-07T04:25:30.810Z,1.50
2018-11-07T04:27:59.006Z,1.30
2018-11-07T04:30:27.181Z,1.43
2018-11-07T04:32:55.383Z,1.30
2018-11-07T04:35:23.565Z,1.40
2018-11-07T04:37:51.753Z,1.33
2018-11-07T04:40:19.933Z,1.10
2018-11-07T04:42:48.113Z,1.70
2018-11-07T04:45:16.301Z,1.30
2018-11-07T04:47:44.477Z,1.17
2018-11-07T04:50:13.053Z,1.40
2018-11-07T04:52:41.258Z,1.30
2018-11-07T04:55:09.473Z,1.40
2018-11-07T04:57:37.645Z,1.60
2018-11-07T05:00:09.038Z,1.80
2018-11-07T05:02:37.220Z,1.40
2018-11-07T05:05:05.511Z,1.37
2018-11-07T05:07:33.712Z,1.70
2018-11-07T05:10:01.970Z,1.43
2018-11-07T05:12:30.149Z,1.80
2018-11-07T05:14:58.379Z,1.60
2018-11-07T05:17:26.538Z,2.03
2018-11-07T05:19:54.734Z,1.80
2018-11-07T05:22:22.900Z,1.57
2018-11-07T05:24:51.141Z,2.07
2018-11-07T05:27:19.326Z,1.80
2018-11-07T05:29:47.601Z,2.67
2018-11-07T05:32:15.837Z,1.90
2018-11-07T05:34:44.166Z,1.90
2018-11-07T05:37:12.375Z,2.00
2018-11-07T05:39:40.566Z,1.87
2018-11-07T05:42:08.752Z,2.20
2018-11-07T05:44:36.962Z,1.90
2018-11-07T05:47:05.507Z,1.90
2018-11-07T05:49:34.280Z,2.33
2018-11-07T05:52:02.470Z,2.60
2018-11-07T05:54:30.662Z,2.50
2018-11-07T05:56:58.842Z,2.50
2018-11-07T05:59:27.046Z,2.80
2018-11-07T06:01:55.265Z,2.70
2018-11-07T06:04:23.445Z,2.43
2018-11-07T06:06:51.632Z,2.70
2018-11-07T06:09:19.827Z,2.00
2018-11-07T06:11:48.018Z,2.90
2018-11-07T06:14:16.272Z,2.30
2018-11-07T06:16:44.470Z,2.40
2018-11-07T06:19:12.716Z,2.40
2018-11-07T06:21:40.922Z,2.87
2018-11-07T06:24:09.174Z,2.77
2018-11-07T06:26:37.346Z,3.23
2018-11-07T06:29:05.547Z,3.20
2018-11-07T06:31:33.746Z,3.67
2018-11-07T06:34:01.985Z,3.57
2018-11-07T06:36:30.175Z,3.50
2018-11-07T06:38:58.369Z,3.83
2018-11-07T06:41:26.570Z,4.33
2018-11-07T06:43:54.762Z,4.20
2018-11-07T06:46:22.971Z,4.80
2018-11-07T06:48:51.162Z,4.97
2018-11-07T06:51:19.381Z,4.47
2018-11-07T06:53:47.570Z,4.50
2018-11-07T06:56:15.760Z,5.30
2018-11-07T06:58:43.948Z,4.90
2018-11-07T07:01:12.147Z,5.80
2018-11-07T07:03:40.324Z,4.87
2018-11-07T07:06:08.533Z,4.80
2018-11-07T07:08:36.733Z,5.87
2018-11-07T07:11:05.117Z,5.83
2018-11-07T07:13:33.316Z,5.37
2018-11-07T07:16:01.497Z,5.93
2018-11-07T07:18:29.713Z,6.10
2018-11-07T07:20:57.927Z,5.73
2018-11-07T07:23:26.130Z,6.57
2018-11-07T07:25:54.327Z,6.43
2018-11-07T07:28:22.521Z,6.00
2018-11-07T07:30:50.728Z,6.30
2018-11-07T07:33:19.009Z,6.20
2018-11-07T07:35:47.127Z,6.67
2018-11-07T07:38:15.315Z,6.33
2018-11-07T07:40:43.497Z,6.43
2018-11-07T07:43:11.698Z,7.07
2018-11-07T07:45:39.922Z,5.33
2018-11-07T07:48:08.058Z,5.30
2018-11-07T07:50:36.254Z,4.90
2018-11-07T07:53:04.455Z,4.73
2018-11-07T07:55:32.641Z,5.13
2018-11-07T07:58:00.835Z,5.63
2018-11-07T08:00:29.047Z,5.37
2018-11-07T08:02:57.230Z,5.80
2018-11-07T08:05:25.431Z,5.60
2018-11-07T08:07:53.610Z,5.73
2018-11-07T08:10:22.442Z,5.27
2018-11-07T08:12:51.137Z,5.23
2018-11-07T08:15:19.440Z,5.60
2018-11-07T08:17:47.668Z,6.57
2018-11-07T08:20:16.777Z,5.00
2018-11-07T08:22:45.762Z,5.90
2018-11-07T08:25:13.954Z,5.47
2018-11-07T08:27:42.138Z,6.13
2018-11-07T08:30:12.441Z,6.10
2018-11-07T08:32:40.769Z,6.77
2018-11-07T08:35:09.927Z,6.37
2018-11-07T08:37:38.293Z,7.60
2018-11-07T08:40:10.468Z,28.23
2018-11-07T08:42:39.155Z,8.07
2018-11-07T08:45:08.258Z,6.20
2018-11-07T08:47:36.425Z,6.70
2018-11-07T08:50:06.216Z,8.47
2018-11-07T08:52:34.401Z,7.80
2018-11-07T08:55:02.647Z,7.37
2018-11-07T08:57:30.774Z,7.50
2018-11-07T08:59:58.973Z,6.30
2018-11-07T09:02:27.439Z,6.93
2018-11-07T09:04:55.621Z,6.80
2018-11-07T09:07:23.817Z,6.80
2018-11-07T09:09:52.746Z,7.07
2018-11-07T09:12:20.953Z,6.30
2018-11-07T09:14:49.138Z,6.63
2018-11-07T09:17:17.339Z,6.63
2018-11-07T09:19:45.535Z,7.93
2018-11-07T09:22:13.873Z,7.63
2018-11-07T09:24:42.054Z,8.10
2018-11-07T09:27:10.257Z,7.73
2018-11-07T09:29:38.451Z,6.80
2018-11-07T09:32:06.654Z,6.30
2018-11-07T09:34:34.841Z,5.10
2018-11-07T09:37:03.029Z,4.57
2018-11-07T09:39:31.219Z,5.03
2018-11-07T09:41:59.429Z,4.70
2018-11-07T09:44:27.601Z,4.20
2018-11-07T09:46:55.804Z,5.63
2018-11-07T09:49:24.000Z,4.90
2018-11-07T09:51:52.194Z,4.40
2018-11-07T09:54:20.417Z,4.23
2018-11-07T09:56:48.627Z,3.60
2018-11-07T09:59:16.809Z,3.37
2018-11-07T10:01:45.014Z,3.33
2018-11-07T10:04:13.200Z,3.90
2018-11-07T10:06:41.526Z,3.70
2018-11-07T10:09:10.674Z,3.33
2018-11-07T10:11:39.073Z,3.13
2018-11-07T10:14:07.534Z,2.90
2018-11-07T10:16:35.729Z,2.40
2018-11-07T10:19:03.910Z,2.60
2018-11-07T10:21:32.100Z,2.83
2018-11-07T10:24:00.346Z,2.33
2018-11-07T10:26:28.577Z,2.57
2018-11-07T10:28:56.973Z,2.90
2018-11-07T10:31:25.000Z,3.73
2018-11-07T10:33:53.213Z,2.40
2018-11-07T10:36:21.487Z,2.37
2018-11-07T10:38:49.713Z,2.60
2018-11-07T10:41:18.013Z,17.70
2018-11-07T10:43:46.290Z,4.50
2018-11-07T10:46:14.497Z,3.53
2018-11-07T10:48:42.606Z,3.50
2018-11-07T10:51:10.830Z,2.67
2018-11-07T10:53:39.017Z,2.60
2018-11-07T10:56:07.217Z,2.20
2018-11-07T10:58:35.409Z,2.10
2018-11-07T11:01:09.117Z,1.90
2018-11-07T11:03:37.309Z,2.00
2018-11-07T11:06:05.835Z,2.20
2018-11-07T11:08:34.031Z,2.00
2018-11-07T11:11:02.269Z,2.50
2018-11-07T11:13:30.409Z,1.87
2018-11-07T11:15:58.593Z,1.90
2018-11-07T11:18:26.825Z,1.70
2018-11-07T11:20:55.851Z,2.80
2018-11-07T11:23:24.085Z,1.80
2018-11-07T11:25:52.325Z,2.20
2018-11-07T11:28:20.485Z,1.57
2018-11-07T11:30:48.693Z,1.90
2018-11-07T11:33:17.128Z,2.23
2018-11-07T11:35:45.310Z,1.80
2018-11-07T11:38:13.518Z,1.73
2018-11-07T11:40:41.760Z,2.37
2018-11-07T11:43:09.894Z,1.73
2018-11-07T11:45:38.082Z,1.60
2018-11-07T11:48:06.369Z,1.87
2018-11-07T11:50:34.541Z,1.80
2018-11-07T11:53:02.742Z,2.07
2018-11-07T11:55:30.934Z,1.70
2018-11-07T11:57:59.121Z,1.83
2018-11-07T12:00:27.333Z,1.43
2018-11-07T12:02:55.500Z,1.70
2018-11-07T12:05:23.714Z,1.83
2018-11-07T12:07:51.901Z,2.60
2018-11-07T12:10:22.380Z,1.77
2018-11-07T12:12:52.526Z,1.90
2018-11-07T12:15:21.852Z,1.40
2018-11-07T12:17:50.211Z,1.57
2018-11-07T12:20:18.400Z,1.30
2018-11-07T12:22:46.746Z,1.67
2018-11-07T12:25:15.666Z,1.43
2018-11-07T12:27:44.233Z,1.60
2018-11-07T12:30:14.627Z,1.90
2018-11-07T12:32:43.937Z,1.50
2018-11-07T12:35:12.130Z,1.30
2018-11-07T12:37:40.693Z,1.30
2018-11-07T12:40:09.782Z,1.37
2018-11-07T12:42:38.330Z,1.40
2018-11-07T12:45:08.346Z,1.37
2018-11-07T12:47:36.773Z,1.20
2018-11-07T12:50:07.153Z,1.30
2018-11-07T12:52:35.213Z,1.23
2018-11-07T12:55:03.417Z,1.40
2018-11-07T12:57:31.694Z,1.50
2018-11-07T12:59:59.881Z,1.47
2018-11-07T13:02:28.043Z,1.40
2018-11-07T13:04:56.240Z,1.60
2018-11-07T13:07:24.455Z,1.33
2018-11-07T13:09:52.629Z,1.87
2018-11-07T13:12:20.825Z,1.60
2018-11-07T13:14:49.058Z,1.40
2018-11-07T13:17:17.282Z,1.50
2018-11-07T13:19:45.457Z,1.60
2018-11-07T13:22:13.675Z,1.30
2018-11-07T13:24:41.825Z,1.70
2018-11-07T13:27:10.007Z,1.30
2018-11-07T13:29:38.201Z,3.20
2018-11-07T13:32:06.405Z,2.33
2018-11-07T13:34:34.904Z,2.30
2018-11-07T13:37:03.168Z,2.60
2018-11-07T13:39:31.254Z,3.63
2018-11-07T13:41:59.439Z,3.50
2018-11-07T13:44:27.630Z,3.27
2018-11-07T13:46:55.806Z,3.20
2018-11-07T13:49:23.990Z,3.10
2018-11-07T13:51:52.485Z,2.43
2018-11-07T13:54:20.710Z,2.73
2018-11-07T13:56:48.905Z,2.70
2018-11-07T13:59:17.176Z,2.97
2018-11-07T14:01:45.291Z,3.00
2018-11-07T14:04:13.518Z,2.67
2018-11-07T14:06:41.698Z,3.20
2018-11-07T14:09:11.226Z,3.30
2018-11-07T14:11:39.470Z,2.90
2018-11-07T14:14:08.090Z,3.60
2018-11-07T14:16:36.541Z,2.90
2018-11-07T14:19:05.847Z,3.07
2018-11-07T14:21:34.314Z,2.93
2018-11-07T14:24:02.726Z,3.10
2018-11-07T14:26:30.923Z,2.90
2018-11-07T14:28:59.109Z,3.00
2018-11-07T14:31:27.460Z,3.27
2018-11-07T14:33:55.674Z,2.23
2018-11-07T14:36:23.870Z,2.87
2018-11-07T14:38:52.249Z,2.60
2018-11-07T14:41:20.406Z,2.63
2018-11-07T14:43:48.652Z,2.80
2018-11-07T14:46:16.945Z,2.60
2018-11-07T14:48:45.026Z,2.33
2018-11-07T14:51:13.203Z,2.80
2018-11-07T14:53:41.447Z,2.83
2018-11-07T14:56:09.610Z,3.00
2018-11-07T14:58:37.822Z,2.70
2018-11-07T15:01:06.006Z,2.73
2018-11-07T15:03:34.219Z,2.93
2018-11-07T15:06:02.498Z,2.70
2018-11-07T15:08:30.694Z,2.73
2018-11-07T15:10:58.830Z,2.33
2018-11-07T15:13:27.034Z,2.53
2018-11-07T15:15:55.219Z,2.60
2018-11-07T15:18:23.410Z,2.60
2018-11-07T15:20:51.609Z,2.60
2018-11-07T15:23:19.789Z,3.00
2018-11-07T15:25:47.990Z,2.57
2018-11-07T15:28:16.184Z,2.73
2018-11-07T15:30:44.366Z,2.90
2018-11-07T15:33:12.574Z,3.23
2018-11-07T15:35:40.789Z,3.37
2018-11-07T15:38:08.973Z,2.60
2018-11-07T15:40:37.167Z,3.10
2018-11-07T15:43:05.371Z,2.70
2018-11-07T15:45:33.585Z,2.73
2018-11-07T15:48:01.837Z,2.67
2018-11-07T15:50:35.378Z,2.60
2018-11-07T15:53:03.582Z,2.87
2018-11-07T15:55:31.761Z,2.70
2018-11-07T15:57:59.949Z,3.30
2018-11-07T16:00:28.141Z,2.83
2018-11-07T16:02:56.494Z,3.30
2018-11-07T16:05:24.705Z,3.57
2018-11-07T16:07:52.901Z,3.50
2018-11-07T16:10:21.164Z,3.50
2018-11-07T16:12:49.364Z,3.40
2018-11-07T16:15:18.282Z,3.60
2018-11-07T16:17:46.472Z,3.97
2018-11-07T16:20:18.978Z,2.80
2018-11-07T16:22:47.845Z,3.60
2018-11-07T16:25:16.021Z,4.03
2018-11-07T16:27:44.758Z,4.00
2018-11-07T16:30:14.380Z,3.93
2018-11-07T16:32:42.589Z,4.60
2018-11-07T16:35:11.837Z,4.97
2018-11-07T16:37:40.320Z,4.97
2018-11-07T16:40:10.541Z,4.73
2018-11-07T16:42:38.929Z,5.07
2018-11-07T16:45:08.033Z,5.63
2018-11-07T16:47:36.349Z,4.80
2018-11-07T16:52:57.898Z,4.10
2018-11-07T16:55:26.102Z,3.93
2018-11-07T16:57:54.320Z,3.87
2018-11-07T17:00:22.554Z,4.10
2018-11-07T17:03:38.451Z,4.00
2018-11-07T17:06:06.630Z,3.83
2018-11-07T17:08:34.944Z,3.90
2018-11-07T17:11:03.194Z,4.00
2018-11-07T17:13:31.401Z,4.50
2018-11-07T17:15:59.599Z,5.00
2018-11-07T17:18:28.137Z,5.70
2018-11-07T17:20:56.357Z,5.50
2018-11-07T17:23:24.591Z,5.43
2018-11-07T17:25:52.782Z,5.63
2018-11-07T17:28:21.064Z,4.10
2018-11-07T17:30:49.395Z,4.50
2018-11-07T17:33:17.585Z,4.17
2018-11-07T17:35:45.787Z,4.80
2018-11-07T17:38:13.973Z,4.00
2018-11-07T17:40:42.174Z,3.73
2018-11-07T17:43:10.503Z,4.33
2018-11-07T17:45:38.705Z,4.30
2018-11-07T17:48:07.024Z,3.80
2018-11-07T17:50:35.129Z,3.33
2018-11-07T17:53:03.330Z,3.07
2018-11-07T17:55:31.524Z,2.30
2018-11-07T17:57:59.728Z,2.90
2018-11-07T18:00:33.965Z,2.10
2018-11-07T18:03:02.155Z,2.80
2018-11-07T18:05:30.361Z,3.10
2018-11-07T18:07:58.557Z,2.40
2018-11-07T18:10:26.860Z,2.50
2018-11-07T18:12:55.052Z,2.23
2018-11-07T18:15:23.249Z,2.07
2018-11-07T18:17:51.427Z,2.17
2018-11-07T18:20:19.958Z,2.77
2018-11-07T18:22:48.158Z,2.37
2018-11-07T18:25:17.240Z,2.57
2018-11-07T18:27:45.414Z,2.00
2018-11-07T18:30:14.902Z,2.20
2018-11-07T18:32:43.989Z,2.37
2018-11-07T18:35:14.619Z,2.17
2018-11-07T18:37:42.995Z,2.17
2018-11-07T18:40:12.624Z,2.60
2018-11-07T18:42:41.186Z,2.13
2018-11-07T18:45:10.354Z,2.10
2018-11-07T18:47:39.220Z,2.00
2018-11-07T18:50:08.673Z,2.17
2018-11-07T18:52:36.782Z,2.07
2018-11-07T18:55:06.257Z,2.20
2018-11-07T18:57:34.463Z,2.03
2018-11-07T19:00:02.653Z,1.90
2018-11-07T19:02:31.014Z,1.90
2018-11-07T19:04:59.241Z,1.77
2018-11-07T19:07:27.429Z,1.97
2018-11-07T19:09:55.736Z,1.77
2018-11-07T19:12:25.016Z,1.90
2018-11-07T19:14:53.187Z,2.10
2018-11-07T19:17:21.387Z,1.77
2018-11-07T19:19:49.631Z,1.53
2018-11-07T19:22:17.805Z,1.50
2018-11-07T19:24:46.011Z,1.50
2018-11-07T19:27:14.297Z,1.60
2018-11-07T19:29:42.410Z,1.93
2018-11-07T19:32:10.620Z,1.53
2018-11-07T19:34:38.865Z,1.50
2018-11-07T19:37:07.099Z,1.70
2018-11-07T19:39:35.281Z,1.90
2018-11-07T19:42:03.497Z,1.60
2018-11-07T19:44:31.696Z,1.87
2018-11-07T19:46:59.961Z,1.97
2018-11-07T19:49:28.156Z,1.83
2018-11-07T19:51:56.635Z,1.97
2018-11-07T19:54:24.907Z,2.00
2018-11-07T19:56:53.153Z,2.20
2018-11-07T19:59:21.345Z,3.00
2018-11-07T20:01:49.548Z,2.10
2018-11-07T20:04:17.742Z,1.90
2018-11-07T20:06:45.947Z,2.33
2018-11-07T20:09:14.150Z,2.23
2018-11-07T20:11:42.370Z,1.80
2018-11-07T20:14:10.575Z,1.90
2018-11-07T20:16:39.092Z,2.23
2018-11-07T20:19:07.345Z,2.30
2018-11-07T20:21:35.546Z,2.70
2018-11-07T20:24:04.297Z,2.10
2018-11-07T20:26:33.116Z,3.10
2018-11-07T20:29:01.303Z,2.30
2018-11-07T20:31:29.521Z,2.90
2018-11-07T20:33:57.713Z,2.67
2018-11-07T20:36:25.919Z,2.80
2018-11-07T20:38:54.296Z,2.63
2018-11-07T20:41:22.553Z,3.40
2018-11-07T20:43:50.682Z,4.10
2018-11-07T20:46:18.853Z,3.70
2018-11-07T20:48:47.116Z,3.70
2018-11-07T20:51:15.292Z,4.13
2018-11-07T20:53:43.741Z,4.33
2018-11-07T20:56:12.198Z,3.83
2018-11-07T20:58:40.381Z,4.30
2018-11-07T21:01:08.593Z,4.40
2018-11-07T21:03:36.826Z,3.90
2018-11-07T21:06:05.149Z,3.70
2018-11-07T21:08:33.353Z,3.67
2018-11-07T21:11:01.574Z,3.90
2018-11-07T21:13:29.933Z,4.40
2018-11-07T21:15:58.122Z,4.77
2018-11-07T21:18:26.330Z,4.57
2018-11-07T21:20:54.518Z,4.67
2018-11-07T21:23:22.753Z,3.90
2018-11-07T21:25:51.055Z,4.87
2018-11-07T21:28:19.254Z,4.60
2018-11-07T21:30:47.470Z,4.90
2018-11-07T21:33:15.677Z,4.50
2018-11-07T21:35:43.874Z,4.20
2018-11-07T21:38:12.122Z,6.00
2018-11-07T21:40:40.457Z,3.57
2018-11-07T21:43:08.658Z,4.60
2018-11-07T21:45:36.848Z,4.00
2018-11-07T21:48:05.169Z,3.80
2018-11-07T21:50:33.362Z,4.40
2018-11-07T21:53:01.557Z,4.20
2018-11-07T21:55:29.751Z,4.70
2018-11-07T21:57:57.937Z,3.67
2018-11-07T22:00:26.124Z,3.77
2018-11-07T22:02:54.381Z,3.73
2018-11-07T22:05:22.529Z,4.07
2018-11-07T22:07:50.746Z,3.80
2018-11-07T22:10:19.293Z,4.13
2018-11-07T22:12:47.488Z,3.60
2018-11-07T22:15:15.731Z,4.43
2018-11-07T22:17:44.042Z,3.97
2018-11-07T22:20:15.845Z,3.83
2018-11-07T22:22:44.469Z,3.73
2018-11-07T22:25:12.662Z,3.47
2018-11-07T22:27:40.852Z,3.50
2018-11-07T22:30:10.625Z,4.07
2018-11-07T22:32:39.154Z,3.60
2018-11-07T22:35:08.668Z,2.47
2018-11-07T22:37:36.861Z,3.43
2018-11-07T22:40:06.326Z,3.60
2018-11-07T22:42:34.985Z,3.70
2018-11-07T22:45:03.330Z,3.70
2018-11-07T22:47:31.737Z,4.33
2018-11-07T22:50:00.201Z,5.07
2018-11-07T22:52:28.377Z,4.80
2018-11-07T22:54:56.578Z,5.27
2018-11-07T22:57:25.042Z,4.73
2018-11-07T22:59:53.246Z,4.40
2018-11-07T23:02:22.010Z,4.13
2018-11-07T23:04:50.220Z,4.90
2018-11-07T23:07:18.405Z,4.37
2018-11-07T23:09:46.600Z,3.63
2018-11-07T23:12:14.783Z,3.90
2018-11-07T23:14:42.988Z,4.20
2018-11-07T23:17:11.179Z,3.93
2018-11-07T23:19:39.376Z,3.80
2018-11-07T23:22:07.567Z,3.30
2018-11-07T23:24:35.770Z,2.63
2018-11-07T23:27:03.994Z,3.10
2018-11-07T23:29:32.213Z,2.97
2018-11-07T23:32:00.407Z,3.23
2018-11-07T23:34:28.602Z,3.00
2018-11-07T23:36:56.797Z,3.50
2018-11-07T23:39:24.978Z,2.40
2018-11-07T23:41:53.166Z,3.07
2018-11-07T23:44:21.366Z,3.70
2018-11-07T23:46:49.558Z,2.97
2018-11-07T23:49:17.749Z,3.40
2018-11-07T23:51:49.798Z,2.67
2018-11-07T23:54:19.416Z,2.47
2018-11-07T23:56:47.878Z,3.17
2018-11-07T23:59:16.075Z,2.83
